Latest Weather Observations for Clermont Airport

IDQ60801

Issued at 3:32 pm EST Saturday 28 May 2016 (issued every 30 minutes, with the page automatically refreshed every 10 minutes)

About weather observations | Map of weather stations | Latest weather observations for QLD | Other Formats
Station Details ID: 035124 Name: CLERMONT AIRPORT Lat: -22.78 Lon: 147.62 Height: 270.27 m
Data from the previous 72 hours. | See also: Recent months at Clermont Airport
Date/Time
EST
Temp
°C
App
Temp
°C
Dew
Point
Rel
Hum
%
Delta-T
°C
Wind Press
QNH
hPa
Press
MSL
hPa
Rain
since 9 am
mm
Dir
 
Spd
km/h
Gust
km/h
Spd
kts
Gust
kts
28/03:30pm 26.2 22.4 4.1 24 11.2 WSW 13 20 7 11 1014.7 1013.9 0.0
28/03:00pm 27.1 23.4 4.2 23 11.7 SW 13 19 7 10 1014.6 1013.8 0.0
28/02:30pm 27.3 24.1 5.0 24 11.6 WSW 11 20 6 11 1014.7 1013.9 0.0
28/02:00pm 27.2 24.0 4.9 24 11.5 W 11 24 6 13 1014.8 1014.0 0.0
28/01:30pm 26.0 23.8 6.1 28 10.4 SW 7 11 4 6 1015.0 1014.2 0.0
28/01:00pm 25.8 23.3 6.4 29 10.2 WSW 9 17 5 9 1015.5 1014.7 0.0
28/12:30pm 24.3 22.0 5.6 30 9.6 SW 7 19 4 10 1016.1 1015.3 0.0
28/12:00pm 24.3 21.7 6.1 31 9.4 SW 9 15 5 8 1016.6 1015.8 0.0
28/11:30am 23.6 21.0 6.0 32 9.1 SSW 9 17 5 9 1017.1 1016.3 0.0
28/11:00am 22.7 20.2 6.5 35 8.4 SW 9 15 5 8 1017.5 1016.8 0.0
28/10:30am 21.9 19.6 7.3 39 7.6 SSW 9 15 5 8 1017.9 1017.2 0.0
28/10:00am 21.1 18.5 7.7 42 7.0 S 11 19 6 10 1018.4 1017.6 0.0
28/09:30am 20.1 16.7 7.8 45 6.4 S 15 19 8 10 1018.7 1017.9 0.0
28/09:00am 19.3 17.4 8.9 51 5.5 SSW 9 13 5 7 1018.5 1017.7 0.0
28/08:30am 18.3 16.7 8.6 53 5.1 S 7 13 4 7 1018.4 1017.6 0.0
28/08:00am 17.4 15.9 9.3 59 4.3 SSW 7 11 4 6 1017.8 1017.1 0.0
28/07:30am 14.8 13.6 9.4 70 2.8 SSW 6 7 3 4 1017.2 1016.4 0.0
28/07:00am 12.5 11.8 8.4 76 2.1 SW 2 4 1 2 1016.8 1016.0 0.0
28/06:30am 13.4 12.0 8.9 74 2.3 WSW 6 7 3 4 1016.4 1015.6 0.0
28/06:00am 13.6 12.6 8.7 72 2.5 WSW 4 7 2 4 1016.2 1015.4 0.0
28/05:30am 14.6 14.3 8.8 68 3.0 CALM 0 0 0 0 1016.0 1015.2 0.0
28/05:00am 14.5 14.2 8.7 68 3.0 CALM 0 0 0 0 1015.5 1014.7 0.0
28/04:30am 15.7 15.5 9.1 65 3.4 CALM 0 0 0 0 1015.4 1014.6 0.0
28/04:00am 15.5 15.0 9.2 66 3.3 NNE 2 4 1 2 1015.2 1014.4 0.0
28/03:30am 16.1 15.6 9.3 64 3.6 ENE 2 4 1 2 1015.2 1014.4 0.0
28/03:00am 16.3 16.1 9.0 62 3.8 CALM 0 4 0 2 1015.0 1014.2 0.0
28/02:30am 17.9 17.6 8.7 55 4.8 CALM 0 0 0 0 1014.9 1014.1 0.0
28/02:00am 18.9 18.7 9.1 53 5.2 CALM 0 2 0 1 1014.9 1014.1 0.0
28/01:30am 19.4 19.0 9.6 53 5.3 WSW 2 6 1 3 1015.1 1014.3 0.0
28/01:00am 19.5 18.7 9.7 53 5.3 SW 4 6 2 3 1015.1 1014.3 0.0
28/12:30am 19.4 18.3 9.9 54 5.1 SW 6 9 3 5 1015.2 1014.4 0.0
28/12:00am 19.8 18.6 10.2 54 5.2 SSW 7 11 4 6 1015.5 1014.7 0.0
 
Date/Time
EST
Temp
°C
App
Temp
°C
Dew
Point
Rel
Hum
%
Delta-T
°C
Wind Press
QNH
hPa
Press
MSL
hPa
Rain
since 9 am
mm
Dir
 
Spd
km/h
Gust
km/h
Spd
kts
Gust
kts
27/11:30pm 20.2 18.3 10.6 54 5.3 SW 11 15 6 8 1015.7 1014.9 0.0
27/11:00pm 20.9 19.2 11.3 54 5.4 SSW 11 19 6 10 1015.7 1014.9 0.0
27/10:30pm 21.3 21.1 11.9 55 5.3 SSE 4 7 2 4 1015.3 1014.5 0.0
27/10:00pm 22.0 21.3 12.0 53 5.7 SSE 7 15 4 8 1015.1 1014.3 0.0
27/09:30pm 22.5 21.9 12.2 52 5.9 SSE 7 13 4 7 1015.0 1014.2 0.0
27/09:00pm 23.1 21.8 12.4 51 6.2 S 11 19 6 10 1014.8 1014.0 0.0
27/08:30pm 23.9 21.0 12.2 48 6.7 S 19 28 10 15 1014.3 1013.5 0.0
27/08:00pm 24.8 21.3 12.1 45 7.3 S 22 30 12 16 1014.0 1013.2 0.0
27/07:30pm 27.5 26.3 11.5 37 9.3 SSW 9 13 5 7 1013.2 1012.4 0.0
27/07:00pm 28.4 27.2 11.5 35 9.8 SW 9 13 5 7 1012.6 1011.8 0.0
27/06:30pm 29.7 27.9 10.8 31 10.9 WSW 11 19 6 10 1012.0 1011.2 0.0
27/06:00pm 30.3 28.5 10.8 30 11.3 W 11 20 6 11 1011.4 1010.6 0.0
27/05:30pm 31.0 28.8 10.9 29 11.7 W 13 24 7 13 1010.9 1010.0 0.0
27/05:00pm 31.6 29.1 10.9 28 12.1 WSW 15 32 8 17 1010.3 1009.4 0.0
27/04:30pm 31.4 29.3 11.2 29 11.8 W 13 22 7 12 1009.9 1009.1 0.0
27/04:00pm 31.7 28.8 11.0 28 12.1 WSW 17 22 9 12 1009.7 1008.9 0.0
27/03:30pm 33.8 30.9 11.0 25 13.5 WSW 17 28 9 15 1009.4 1008.6 0.0
27/03:00pm 31.9 29.0 11.1 28 12.2 NW 17 28 9 15 1009.5 1008.7 0.0
27/02:30pm 32.9 29.9 12.0 28 12.5 WNW 19 35 10 19 1009.6 1008.8 0.0
27/02:00pm 32.1 28.9 11.3 28 12.3 WSW 19 33 10 18 1009.9 1009.1 0.0
27/01:30pm 32.7 29.6 12.3 28 12.2 WNW 20 30 11 16 1010.1 1009.3 0.0
27/01:00pm 31.5 29.1 12.8 32 11.3 WSW 17 30 9 16 1010.8 1009.9 0.0
27/12:30pm 31.4 28.3 12.2 30 11.4 WNW 20 35 11 19 1011.3 1010.5 0.0
27/12:00pm 30.6 28.7 13.0 34 10.6 W 15 26 8 14 1011.7 1010.9 0.0
27/11:30am 29.7 29.6 15.0 40 9.1 NNW 9 32 5 17 1012.1 1011.3 0.0
27/11:00am 28.4 27.6 15.0 44 8.2 NW 13 20 7 11 1012.7 1011.9 0.0
27/10:30am 27.8 28.1 16.1 49 7.3 NW 9 15 5 8 1013.2 1012.4 0.0
27/10:00am 27.0 26.9 16.0 51 6.8 NW 11 17 6 9 1013.9 1013.1 0.0
27/09:30am 25.7 25.2 16.8 58 5.6 NW 15 20 8 11 1014.2 1013.4 0.0
27/09:00am 24.7 24.3 17.2 63 4.7 NW 15 22 8 12 1014.2 1013.4 0.0
27/08:30am 23.5 22.6 17.7 70 3.7 NNW 19 30 10 16 1014.0 1013.2 0.0
27/08:00am 22.1 21.9 17.5 75 2.9 NNW 15 24 8 13 1014.0 1013.2 0.0
27/07:30am 20.8 20.7 17.0 79 2.3 NNW 13 19 7 10 1013.7 1012.9 0.0
27/07:00am 20.0 19.8 16.6 81 2.1 NNW 13 19 7 10 1013.4 1012.6 0.0
27/06:30am 19.9 19.5 16.3 80 2.2 NNW 13 20 7 11 1013.0 1012.2 0.0
27/06:00am 20.1 19.7 16.1 78 2.4 NNW 13 19 7 10 1012.7 1011.9 0.0
27/05:30am 20.3 19.4 15.9 76 2.7 NNW 15 22 8 12 1012.6 1011.8 0.0
27/05:00am 20.4 19.4 15.6 74 2.9 NNW 15 19 8 10 1012.4 1011.6 0.0
27/04:30am 20.8 19.8 15.6 72 3.1 NW 15 22 8 12 1012.4 1011.6 0.0
27/04:00am 21.3 19.9 15.6 70 3.4 NNW 17 22 9 12 1012.4 1011.6 0.0
27/03:30am 21.8 20.3 15.4 67 3.9 NNW 17 22 9 12 1012.2 1011.4 0.0
27/03:00am 22.0 20.0 14.9 64 4.3 NNW 19 28 10 15 1012.3 1011.5 0.0
27/02:30am 22.1 20.1 14.0 60 4.8 NNW 17 24 9 13 1012.1 1011.3 0.0
27/02:00am 22.3 20.4 13.1 56 5.3 NNW 15 20 8 11 1012.2 1011.4 0.0
27/01:30am 22.9 20.9 12.8 53 5.9 NNW 15 22 8 12 1012.3 1011.5 0.0
27/01:00am 23.8 21.7 12.4 48 6.6 NNW 15 20 8 11 1012.4 1011.6 0.0
27/12:30am 23.5 21.8 12.5 50 6.4 NNW 13 19 7 10 1012.6 1011.8 0.0
27/12:00am 23.2 21.9 12.5 51 6.2 NNW 11 15 6 8 1012.6 1011.8 0.0
 
Date/Time
EST
Temp
°C
App
Temp
°C
Dew
Point
Rel
Hum
%
Delta-T
°C
Wind Press
QNH
hPa
Press
MSL
hPa
Rain
since 9 am
mm
Dir
 
Spd
km/h
Gust
km/h
Spd
kts
Gust
kts
26/11:30pm 23.5 22.3 12.8 51 6.2 NNW 11 17 6 9 1012.8 1012.0 0.0
26/11:00pm 22.8 21.8 12.4 52 6.0 NW 9 11 5 6 1012.8 1012.0 0.0
26/10:30pm 22.4 21.4 12.4 53 5.7 NNW 9 11 5 6 1012.8 1012.0 0.0
26/10:00pm 22.4 21.3 12.1 52 5.9 NNW 9 9 5 5 1012.8 1012.0 0.0
26/09:30pm 22.5 21.5 12.4 52 5.8 NNW 9 9 5 5 1012.9 1012.1 0.0
26/09:00pm 22.8 21.7 11.8 50 6.3 NNW 9 9 5 5 1013.1 1012.3 0.0
26/08:30pm 23.5 22.8 11.9 48 6.6 NNW 7 9 4 5 1013.1 1012.3 0.0
26/08:00pm 22.9 22.4 12.2 51 6.1 NNW 6 6 3 3 1013.2 1012.4 0.0
26/07:30pm 22.9 22.9 11.3 48 6.6 N 2 4 1 2 1013.0 1012.2 0.0
26/07:00pm 24.0 23.6 11.0 44 7.3 N 4 6 2 3 1012.8 1012.0 0.0
26/06:30pm 24.5 23.5 10.4 41 7.9 N 6 7 3 4 1012.5 1011.7 0.0
26/06:00pm 27.4 27.2 11.8 38 9.1 NNW 4 4 2 2 1012.4 1011.6 0.0
26/05:30pm 28.6 27.7 11.2 34 10.1 WNW 7 11 4 6 1012.2 1011.4 0.0
26/05:00pm 30.0 28.4 11.5 32 10.8 WNW 11 19 6 10 1012.1 1011.3 0.0
26/04:30pm 30.4 28.0 11.4 31 11.1 WNW 15 26 8 14 1011.8 1011.0 0.0
26/04:00pm 30.9 29.2 11.3 30 11.5 WNW 11 20 6 11 1011.7 1010.9 0.0
26/03:30pm 30.8 28.1 11.7 31 11.3 NNW 17 26 9 14 1011.7 1010.9 0.0
26/03:00pm 30.7 28.4 11.6 31 11.2 NNW 15 22 8 12 1011.6 1010.8 0.0
26/02:30pm 30.4 28.4 11.4 31 11.1 NW 13 19 7 10 1012.0 1011.2 0.0
26/02:00pm 30.4 27.0 11.4 31 11.1 NNW 20 28 11 15 1012.6 1011.8 0.0
26/01:30pm 30.5 28.4 11.0 30 11.4 NW 13 28 7 15 1013.2 1012.4 0.0
26/01:00pm 30.2 27.4 11.2 31 11.1 NW 17 28 9 15 1014.0 1013.2 0.0
26/12:30pm 29.5 26.1 11.1 32 10.7 NNW 20 28 11 15 1014.8 1014.0 0.0
26/12:00pm 29.2 26.1 11.7 34 10.2 NW 19 26 10 14 1015.6 1014.8 0.0
26/11:30am 27.8 24.3 12.2 38 9.2 NNW 22 30 12 16 1016.3 1015.5 0.0
26/11:00am 27.6 25.0 13.2 41 8.6 NNW 19 26 10 14 1016.9 1016.1 0.0
26/10:30am 26.7 24.9 14.5 47 7.4 NW 17 24 9 13 1017.2 1016.4 0.0
26/10:00am 25.2 22.3 14.0 49 6.7 NNW 22 35 12 19 1017.4 1016.7 0.0
26/09:30am 24.8 22.2 14.9 54 6.0 NNW 22 32 12 17 1017.6 1016.9 0.0
26/09:00am 24.0 22.9 15.2 58 5.3 NNW 15 22 8 12 1017.5 1016.8 0.0
26/08:30am 22.5 21.7 15.1 63 4.5 NNW 13 19 7 10 1017.4 1016.7 0.0
26/08:00am 20.4 20.4 14.1 67 3.7 NNW 7 11 4 6 1017.4 1016.7 0.0
26/07:30am 18.7 18.7 13.6 72 2.9 NNW 6 7 3 4 1017.2 1016.4 0.0
26/07:00am 17.4 18.1 13.5 78 2.2 NNW 2 4 1 2 1016.9 1016.1 0.0
26/06:30am 17.6 16.9 13.3 76 2.5 NNW 9 11 5 6 1016.6 1015.8 0.0
26/06:00am 17.9 17.8 13.8 77 2.4 N 7 11 4 6 1016.1 1015.3 0.0
26/05:30am 16.7 16.2 12.7 77 2.2 NNW 7 11 4 6 1016.0 1015.2 0.0
26/05:00am 16.6 16.1 12.0 74 2.5 NNW 6 7 3 4 1016.1 1015.3 0.0
26/04:30am 17.0 16.0 12.3 74 2.6 NNW 9 9 5 5 1016.2 1015.4 0.0
26/04:00am 16.6 16.2 9.8 64 3.6 NNW 2 2 1 1 1016.3 1015.5 0.0
26/03:30am 17.9 17.8 12.1 69 3.2 NNW 4 6 2 3 1016.4 1015.6 0.0
26/03:00am 17.8 16.7 11.8 68 3.3 NNW 9 11 5 6 1016.3 1015.5 0.0
26/02:30am 17.4 16.5 12.5 73 2.8 NNW 9 11 5 6 1016.2 1015.4 0.0
26/02:00am 14.5 13.8 6.8 60 3.8 CALM 0 0 0 0 1016.6 1015.8 0.0
26/01:30am 14.1 12.6 6.7 61 3.6 WNW 4 6 2 3 1016.8 1016.0 0.0
26/01:00am 14.6 14.0 7.2 61 3.7 CALM 0 0 0 0 1016.9 1016.1 0.0
26/12:30am 14.7 14.0 7.0 60 3.8 CALM 0 0 0 0 1017.0 1016.2 0.0
26/12:00am 15.6 15.0 7.6 59 4.0 CALM 0 0 0 0 1017.1 1016.3 0.0
 
Date/Time
EST
Temp
°C
App
Temp
°C
Dew
Point
Rel
Hum
%
Delta-T
°C
Wind Press
QNH
hPa
Press
MSL
hPa
Rain
since 9 am
mm
Dir
 
Spd
km/h
Gust
km/h
Spd
kts
Gust
kts
25/11:30pm 16.4 15.4 7.3 55 4.6 N 2 6 1 3 1017.3 1016.6 0.0
25/11:00pm 15.9 15.2 6.9 55 4.5 CALM 0 0 0 0 1017.2 1016.4 0.0
25/10:30pm 16.8 16.1 6.9 52 5.0 CALM 0 0 0 0 1016.9 1016.1 0.0
25/10:00pm 18.6 17.9 7.1 47 5.9 CALM 0 0 0 0 1017.1 1016.3 0.0
25/09:30pm 19.3 18.6 7.1 45 6.3 CALM 0 0 0 0 1017.0 1016.2 0.0
25/09:00pm 20.8 19.8 7.4 42 7.0 NNE 2 2 1 1 1017.1 1016.3 0.0
25/08:30pm 21.6 20.2 7.4 40 7.4 NE 4 7 2 4 1017.0 1016.2 0.0
25/08:00pm 22.1 20.2 7.5 39 7.7 NNE 7 11 4 6 1016.6 1015.8 0.0
25/07:30pm 21.4 19.6 7.3 40 7.4 NNE 6 7 3 4 1016.3 1015.5 0.0
25/07:00pm 22.3 21.0 7.7 39 7.7 NNE 4 4 2 2 1016.1 1015.3 0.0
25/06:30pm 23.1 22.5 7.6 37 8.2 CALM 0 0 0 0 1015.8 1015.0 0.0
25/06:00pm 24.9 23.6 7.5 33 9.3 NE 4 7 2 4 1015.4 1014.6 0.0
25/05:30pm 27.0 25.5 6.9 28 10.7 S 4 6 2 3 1015.3 1014.5 0.0
25/05:00pm 28.3 26.1 6.4 25 11.7 SSE 7 9 4 5 1015.0 1014.2 0.0
25/04:30pm 29.2 27.3 6.6 24 12.2 NE 6 9 3 5 1014.7 1013.9 0.0
25/04:00pm 28.8 27.3 6.8 25 11.9 N 4 6 2 3 1014.8 1014.0 0.0

Other Formats:

Comma delimited format used in spreadsheet applications
http://www.bom.gov.au/fwo/IDQ60801/IDQ60801.94395.axf

JavaScript Object Notation format (JSON) in row-major order
http://www.bom.gov.au/fwo/IDQ60801/IDQ60801.94395.json